sensor_id;sensor_type;location;lat;lon;timestamp;P1;durP1;ratioP1;P2;durP2;ratioP2
54983;SDS011;40884;53.562;9.940;2022-09-09T00:00:20;23.47;;;21.10;;
54983;SDS011;40884;53.562;9.940;2022-09-09T00:02:39;24.73;;;22.13;;
54983;SDS011;40884;53.562;9.940;2022-09-09T00:03:47;24.70;;;22.10;;
54983;SDS011;40884;53.562;9.940;2022-09-09T00:06:03;25.23;;;22.60;;
54983;SDS011;40884;53.562;9.940;2022-09-09T00:08:13;24.83;;;22.43;;
54983;SDS011;40884;53.562;9.940;2022-09-09T00:09:21;25.40;;;22.37;;
54983;SDS011;40884;53.562;9.940;2022-09-09T00:10:29;23.20;;;20.73;;
54983;SDS011;40884;53.562;9.940;2022-09-09T00:12:59;24.93;;;22.33;;
54983;SDS011;40884;53.562;9.940;2022-09-09T00:14:02;23.37;;;21.07;;
54983;SDS011;40884;53.562;9.940;2022-09-09T00:15:13;24.33;;;21.90;;
54983;SDS011;40884;53.562;9.940;2022-09-09T00:16:21;22.93;;;20.63;;
54983;SDS011;40884;53.562;9.940;2022-09-09T00:19:52;24.47;;;22.00;;
54983;SDS011;40884;53.562;9.940;2022-09-09T00:22:12;25.97;;;23.27;;
54983;SDS011;40884;53.562;9.940;2022-09-09T00:23:34;25.33;;;22.63;;
54983;SDS011;40884;53.562;9.940;2022-09-09T00:24:45;24.97;;;22.27;;
54983;SDS011;40884;53.562;9.940;2022-09-09T00:26:53;25.63;;;22.93;;
54983;SDS011;40884;53.562;9.940;2022-09-09T00:27:55;25.77;;;23.07;;
54983;SDS011;40884;53.562;9.940;2022-09-09T00:29:00;26.30;;;23.43;;
54983;SDS011;40884;53.562;9.940;2022-09-09T00:31:16;28.00;;;24.90;;
54983;SDS011;40884;53.562;9.940;2022-09-09T00:32:18;28.07;;;24.20;;
54983;SDS011;40884;53.562;9.940;2022-09-09T00:33:19;26.93;;;24.23;;
54983;SDS011;40884;53.562;9.940;2022-09-09T00:34:21;26.83;;;23.93;;
54983;SDS011;40884;53.562;9.940;2022-09-09T00:35:44;27.47;;;24.57;;
54983;SDS011;40884;53.562;9.940;2022-09-09T00:36:43;27.00;;;24.10;;
54983;SDS011;40884;53.562;9.940;2022-09-09T00:37:44;26.90;;;24.00;;
54983;SDS011;40884;53.562;9.940;2022-09-09T00:38:48;30.33;;;24.80;;
54983;SDS011;40884;53.562;9.940;2022-09-09T00:39:49;27.37;;;24.47;;
54983;SDS011;40884;53.562;9.940;2022-09-09T00:40:58;28.03;;;25.00;;
54983;SDS011;40884;53.562;9.940;2022-09-09T00:42:09;29.17;;;26.10;;
54983;SDS011;40884;53.562;9.940;2022-09-09T00:44:51;30.50;;;27.00;;
54983;SDS011;40884;53.562;9.940;2022-09-09T00:45:47;31.43;;;27.37;;
54983;SDS011;40884;53.562;9.940;2022-09-09T00:47:11;33.00;;;27.63;;
54983;SDS011;40884;53.562;9.940;2022-09-09T00:48:12;31.07;;;27.67;;
54983;SDS011;40884;53.562;9.940;2022-09-09T00:52:11;36.90;;;31.13;;
54983;SDS011;40884;53.562;9.940;2022-09-09T00:54:12;40.33;;;32.60;;
54983;SDS011;40884;53.562;9.940;2022-09-09T00:55:16;39.70;;;32.17;;
54983;SDS011;40884;53.562;9.940;2022-09-09T00:56:24;42.43;;;33.43;;
54983;SDS011;40884;53.562;9.940;2022-09-09T00:57:26;43.83;;;33.87;;
54983;SDS011;40884;53.562;9.940;2022-09-09T00:58:27;39.27;;;32.60;;
54983;SDS011;40884;53.562;9.940;2022-09-09T01:00:40;46.37;;;35.93;;
54983;SDS011;40884;53.562;9.940;2022-09-09T01:01:42;43.83;;;34.37;;
54983;SDS011;40884;53.562;9.940;2022-09-09T01:02:46;45.67;;;34.20;;
54983;SDS011;40884;53.562;9.940;2022-09-09T01:03:52;44.83;;;34.23;;
54983;SDS011;40884;53.562;9.940;2022-09-09T01:04:53;46.30;;;33.77;;
54983;SDS011;40884;53.562;9.940;2022-09-09T01:06:59;41.47;;;33.10;;
54983;SDS011;40884;53.562;9.940;2022-09-09T01:08:05;41.40;;;33.67;;
54983;SDS011;40884;53.562;9.940;2022-09-09T01:09:16;44.20;;;34.17;;
54983;SDS011;40884;53.562;9.940;2022-09-09T01:10:40;47.43;;;34.93;;
54983;SDS011;40884;53.562;9.940;2022-09-09T01:11:55;45.53;;;34.53;;
54983;SDS011;40884;53.562;9.940;2022-09-09T01:12:59;40.83;;;32.47;;
54983;SDS011;40884;53.562;9.940;2022-09-09T01:14:23;43.47;;;33.77;;
54983;SDS011;40884;53.562;9.940;2022-09-09T01:15:25;36.77;;;31.43;;
54983;SDS011;40884;53.562;9.940;2022-09-09T01:16:26;40.67;;;32.03;;
54983;SDS011;40884;53.562;9.940;2022-09-09T01:17:29;46.27;;;36.37;;
54983;SDS011;40884;53.562;9.940;2022-09-09T01:18:37;44.53;;;34.33;;
54983;SDS011;40884;53.562;9.940;2022-09-09T01:22:06;38.77;;;31.70;;
54983;SDS011;40884;53.562;9.940;2022-09-09T01:24:19;32.47;;;26.67;;
54983;SDS011;40884;53.562;9.940;2022-09-09T01:26:51;30.73;;;27.43;;
54983;SDS011;40884;53.562;9.940;2022-09-09T01:28:02;33.57;;;28.07;;
54983;SDS011;40884;53.562;9.940;2022-09-09T01:29:08;33.00;;;28.23;;
54983;SDS011;40884;53.562;9.940;2022-09-09T01:30:12;29.20;;;25.40;;
54983;SDS011;40884;53.562;9.940;2022-09-09T01:31:18;29.47;;;26.00;;
54983;SDS011;40884;53.562;9.940;2022-09-09T01:33:39;31.93;;;26.30;;
54983;SDS011;40884;53.562;9.940;2022-09-09T01:34:39;36.83;;;29.40;;
54983;SDS011;40884;53.562;9.940;2022-09-09T01:38:03;36.67;;;28.10;;
54983;SDS011;40884;53.562;9.940;2022-09-09T01:39:04;31.90;;;27.27;;
54983;SDS011;40884;53.562;9.940;2022-09-09T01:40:05;31.77;;;27.13;;
54983;SDS011;40884;53.562;9.940;2022-09-09T01:41:06;34.37;;;27.87;;
54983;SDS011;40884;53.562;9.940;2022-09-09T01:42:21;37.03;;;28.23;;
54983;SDS011;40884;53.562;9.940;2022-09-09T01:43:22;41.47;;;31.03;;
54983;SDS011;40884;53.562;9.940;2022-09-09T01:44:24;45.10;;;31.83;;
54983;SDS011;40884;53.562;9.940;2022-09-09T01:45:24;44.37;;;31.13;;
54983;SDS011;40884;53.562;9.940;2022-09-09T01:46:25;43.30;;;31.73;;
54983;SDS011;40884;53.562;9.940;2022-09-09T01:47:25;42.30;;;31.53;;
54983;SDS011;40884;53.562;9.940;2022-09-09T01:48:38;41.97;;;30.00;;
54983;SDS011;40884;53.562;9.940;2022-09-09T01:49:42;41.20;;;30.87;;
54983;SDS011;40884;53.562;9.940;2022-09-09T01:50:51;41.00;;;30.93;;
54983;SDS011;40884;53.562;9.940;2022-09-09T01:51:53;44.10;;;31.97;;
54983;SDS011;40884;53.562;9.940;2022-09-09T01:52:59;41.80;;;30.93;;
54983;SDS011;40884;53.562;9.940;2022-09-09T01:54:04;44.60;;;32.00;;
54983;SDS011;40884;53.562;9.940;2022-09-09T01:55:04;42.80;;;30.23;;
54983;SDS011;40884;53.562;9.940;2022-09-09T01:56:16;44.50;;;31.93;;
54983;SDS011;40884;53.562;9.940;2022-09-09T01:57:26;42.87;;;31.87;;
54983;SDS011;40884;53.562;9.940;2022-09-09T02:00:43;43.87;;;32.20;;
54983;SDS011;40884;53.562;9.940;2022-09-09T02:02:08;43.50;;;31.23;;
54983;SDS011;40884;53.562;9.940;2022-09-09T02:03:09;44.67;;;31.70;;
54983;SDS011;40884;53.562;9.940;2022-09-09T02:04:28;51.33;;;32.87;;
54983;SDS011;40884;53.562;9.940;2022-09-09T02:05:42;43.40;;;31.43;;
54983;SDS011;40884;53.562;9.940;2022-09-09T02:06:55;40.23;;;30.60;;
54983;SDS011;40884;53.562;9.940;2022-09-09T02:08:15;41.27;;;30.17;;
54983;SDS011;40884;53.562;9.940;2022-09-09T02:09:26;39.60;;;29.73;;
54983;SDS011;40884;53.562;9.940;2022-09-09T02:10:29;43.40;;;29.80;;
54983;SDS011;40884;53.562;9.940;2022-09-09T02:11:42;41.10;;;29.60;;
54983;SDS011;40884;53.562;9.940;2022-09-09T02:12:55;38.50;;;29.27;;
54983;SDS011;40884;53.562;9.940;2022-09-09T02:14:08;39.37;;;28.37;;
54983;SDS011;40884;53.562;9.940;2022-09-09T02:15:17;39.23;;;30.10;;
54983;SDS011;40884;53.562;9.940;2022-09-09T02:16:31;42.43;;;30.03;;
54983;SDS011;40884;53.562;9.940;2022-09-09T02:17:33;49.07;;;32.27;;
54983;SDS011;40884;53.562;9.940;2022-09-09T02:18:44;40.07;;;29.77;;
54983;SDS011;40884;53.562;9.940;2022-09-09T02:19:46;37.13;;;27.90;;
54983;SDS011;40884;53.562;9.940;2022-09-09T02:20:57;36.50;;;27.83;;
54983;SDS011;40884;53.562;9.940;2022-09-09T02:21:59;37.30;;;28.90;;
54983;SDS011;40884;53.562;9.940;2022-09-09T02:23:00;31.33;;;24.13;;
54983;SDS011;40884;53.562;9.940;2022-09-09T02:24:02;31.47;;;26.60;;
54983;SDS011;40884;53.562;9.940;2022-09-09T02:25:04;34.50;;;26.57;;
54983;SDS011;40884;53.562;9.940;2022-09-09T02:26:05;37.13;;;27.60;;
54983;SDS011;40884;53.562;9.940;2022-09-09T02:27:07;33.70;;;27.07;;
54983;SDS011;40884;53.562;9.940;2022-09-09T02:28:08;38.77;;;28.27;;
54983;SDS011;40884;53.562;9.940;2022-09-09T02:29:14;34.93;;;26.97;;
54983;SDS011;40884;53.562;9.940;2022-09-09T02:30:16;37.20;;;27.57;;
54983;SDS011;40884;53.562;9.940;2022-09-09T02:31:23;35.77;;;27.83;;
54983;SDS011;40884;53.562;9.940;2022-09-09T02:32:26;37.60;;;28.50;;
54983;SDS011;40884;53.562;9.940;2022-09-09T02:33:28;34.47;;;26.47;;
54983;SDS011;40884;53.562;9.940;2022-09-09T02:34:30;32.97;;;26.50;;
54983;SDS011;40884;53.562;9.940;2022-09-09T02:35:31;35.63;;;27.00;;
54983;SDS011;40884;53.562;9.940;2022-09-09T02:36:32;30.33;;;24.67;;
54983;SDS011;40884;53.562;9.940;2022-09-09T02:37:38;26.33;;;23.37;;
54983;SDS011;40884;53.562;9.940;2022-09-09T02:38:40;30.60;;;25.13;;
54983;SDS011;40884;53.562;9.940;2022-09-09T02:39:46;31.60;;;25.10;;
54983;SDS011;40884;53.562;9.940;2022-09-09T02:40:49;33.90;;;26.20;;
54983;SDS011;40884;53.562;9.940;2022-09-09T02:41:49;29.00;;;23.93;;
54983;SDS011;40884;53.562;9.940;2022-09-09T02:42:50;29.33;;;24.07;;
54983;SDS011;40884;53.562;9.940;2022-09-09T02:43:52;30.60;;;24.70;;
54983;SDS011;40884;53.562;9.940;2022-09-09T02:44:52;29.63;;;24.83;;
54983;SDS011;40884;53.562;9.940;2022-09-09T02:46:08;29.30;;;23.47;;
54983;SDS011;40884;53.562;9.940;2022-09-09T02:48:35;26.50;;;22.63;;
54983;SDS011;40884;53.562;9.940;2022-09-09T02:49:46;26.10;;;22.63;;
54983;SDS011;40884;53.562;9.940;2022-09-09T02:51:01;29.67;;;24.13;;
54983;SDS011;40884;53.562;9.940;2022-09-09T02:52:06;29.83;;;25.13;;
54983;SDS011;40884;53.562;9.940;2022-09-09T02:53:18;30.07;;;24.70;;
54983;SDS011;40884;53.562;9.940;2022-09-09T02:56:25;27.87;;;23.57;;
54983;SDS011;40884;53.562;9.940;2022-09-09T02:57:29;27.60;;;23.43;;
54983;SDS011;40884;53.562;9.940;2022-09-09T02:58:31;29.30;;;23.77;;
54983;SDS011;40884;53.562;9.940;2022-09-09T02:59:36;30.50;;;24.73;;
54983;SDS011;40884;53.562;9.940;2022-09-09T03:00:36;28.57;;;23.43;;
54983;SDS011;40884;53.562;9.940;2022-09-09T03:01:36;27.67;;;23.70;;
54983;SDS011;40884;53.562;9.940;2022-09-09T03:02:36;27.77;;;22.73;;
54983;SDS011;40884;53.562;9.940;2022-09-09T03:03:39;26.37;;;23.47;;
54983;SDS011;40884;53.562;9.940;2022-09-09T03:04:44;27.13;;;21.90;;
54983;SDS011;40884;53.562;9.940;2022-09-09T03:05:46;27.93;;;23.17;;
54983;SDS011;40884;53.562;9.940;2022-09-09T03:06:47;27.53;;;23.37;;
54983;SDS011;40884;53.562;9.940;2022-09-09T03:07:53;26.77;;;22.30;;
54983;SDS011;40884;53.562;9.940;2022-09-09T03:08:54;26.40;;;21.80;;
54983;SDS011;40884;53.562;9.940;2022-09-09T03:09:59;25.70;;;22.90;;
54983;SDS011;40884;53.562;9.940;2022-09-09T03:11:01;23.83;;;21.23;;
54983;SDS011;40884;53.562;9.940;2022-09-09T03:12:02;23.90;;;21.37;;
54983;SDS011;40884;53.562;9.940;2022-09-09T03:13:04;25.50;;;22.80;;
54983;SDS011;40884;53.562;9.940;2022-09-09T03:14:07;25.43;;;21.80;;
54983;SDS011;40884;53.562;9.940;2022-09-09T03:15:09;25.70;;;21.23;;
54983;SDS011;40884;53.562;9.940;2022-09-09T03:16:10;25.07;;;22.37;;
54983;SDS011;40884;53.562;9.940;2022-09-09T03:17:16;24.53;;;21.43;;
54983;SDS011;40884;53.562;9.940;2022-09-09T03:18:23;25.23;;;22.53;;
54983;SDS011;40884;53.562;9.940;2022-09-09T03:19:26;23.53;;;20.83;;
54983;SDS011;40884;53.562;9.940;2022-09-09T03:20:27;24.27;;;21.30;;
54983;SDS011;40884;53.562;9.940;2022-09-09T03:21:27;26.10;;;22.17;;
54983;SDS011;40884;53.562;9.940;2022-09-09T03:22:28;25.20;;;21.83;;
54983;SDS011;40884;53.562;9.940;2022-09-09T03:23:32;26.00;;;22.83;;
54983;SDS011;40884;53.562;9.940;2022-09-09T03:24:35;25.17;;;21.23;;
54983;SDS011;40884;53.562;9.940;2022-09-09T03:25:37;23.97;;;21.47;;
54983;SDS011;40884;53.562;9.940;2022-09-09T03:26:39;24.83;;;21.87;;
54983;SDS011;40884;53.562;9.940;2022-09-09T03:27:42;23.67;;;21.17;;
54983;SDS011;40884;53.562;9.940;2022-09-09T03:28:44;24.00;;;21.00;;
54983;SDS011;40884;53.562;9.940;2022-09-09T03:29:44;24.00;;;21.40;;
54983;SDS011;40884;53.562;9.940;2022-09-09T03:30:48;24.53;;;21.03;;
54983;SDS011;40884;53.562;9.940;2022-09-09T03:31:48;26.43;;;22.13;;
54983;SDS011;40884;53.562;9.940;2022-09-09T03:32:48;23.37;;;19.97;;
54983;SDS011;40884;53.562;9.940;2022-09-09T03:33:49;22.70;;;20.30;;
54983;SDS011;40884;53.562;9.940;2022-09-09T03:34:51;23.93;;;20.07;;
54983;SDS011;40884;53.562;9.940;2022-09-09T03:35:52;22.60;;;20.17;;
54983;SDS011;40884;53.562;9.940;2022-09-09T03:36:53;23.13;;;20.63;;
54983;SDS011;40884;53.562;9.940;2022-09-09T03:37:54;23.53;;;20.97;;
54983;SDS011;40884;53.562;9.940;2022-09-09T03:38:54;23.00;;;20.53;;
54983;SDS011;40884;53.562;9.940;2022-09-09T03:39:55;22.63;;;20.10;;
54983;SDS011;40884;53.562;9.940;2022-09-09T03:40:56;23.40;;;20.77;;
54983;SDS011;40884;53.562;9.940;2022-09-09T03:41:57;22.17;;;19.50;;
54983;SDS011;40884;53.562;9.940;2022-09-09T03:42:57;24.03;;;20.77;;
54983;SDS011;40884;53.562;9.940;2022-09-09T03:43:58;24.30;;;20.97;;
54983;SDS011;40884;53.562;9.940;2022-09-09T03:45:00;24.37;;;19.63;;
54983;SDS011;40884;53.562;9.940;2022-09-09T03:46:01;23.50;;;19.60;;
54983;SDS011;40884;53.562;9.940;2022-09-09T03:47:03;25.77;;;21.40;;
54983;SDS011;40884;53.562;9.940;2022-09-09T03:48:03;23.00;;;20.40;;
54983;SDS011;40884;53.562;9.940;2022-09-09T03:49:04;22.33;;;19.93;;
54983;SDS011;40884;53.562;9.940;2022-09-09T03:50:06;20.90;;;18.80;;
54983;SDS011;40884;53.562;9.940;2022-09-09T03:51:06;21.63;;;18.23;;
54983;SDS011;40884;53.562;9.940;2022-09-09T03:52:08;23.30;;;20.30;;
54983;SDS011;40884;53.562;9.940;2022-09-09T03:53:08;23.57;;;20.87;;
54983;SDS011;40884;53.562;9.940;2022-09-09T03:54:08;23.43;;;20.53;;
54983;SDS011;40884;53.562;9.940;2022-09-09T03:55:09;21.40;;;19.17;;
54983;SDS011;40884;53.562;9.940;2022-09-09T03:56:09;21.53;;;19.23;;
54983;SDS011;40884;53.562;9.940;2022-09-09T03:57:09;22.07;;;19.77;;
54983;SDS011;40884;53.562;9.940;2022-09-09T03:58:10;22.10;;;19.50;;
54983;SDS011;40884;53.562;9.940;2022-09-09T03:59:10;22.37;;;20.00;;
54983;SDS011;40884;53.562;9.940;2022-09-09T04:00:10;23.80;;;20.57;;
54983;SDS011;40884;53.562;9.940;2022-09-09T04:01:24;24.20;;;20.27;;
54983;SDS011;40884;53.562;9.940;2022-09-09T04:02:24;24.33;;;20.97;;
54983;SDS011;40884;53.562;9.940;2022-09-09T04:03:25;22.53;;;20.07;;
54983;SDS011;40884;53.562;9.940;2022-09-09T04:04:25;22.70;;;20.30;;
54983;SDS011;40884;53.562;9.940;2022-09-09T04:05:27;22.23;;;19.83;;
54983;SDS011;40884;53.562;9.940;2022-09-09T04:06:28;22.93;;;20.10;;
54983;SDS011;40884;53.562;9.940;2022-09-09T04:07:28;21.03;;;18.80;;
54983;SDS011;40884;53.562;9.940;2022-09-09T04:08:29;21.17;;;18.87;;
54983;SDS011;40884;53.562;9.940;2022-09-09T04:09:30;21.13;;;19.03;;
54983;SDS011;40884;53.562;9.940;2022-09-09T04:10:30;22.67;;;20.17;;
54983;SDS011;40884;53.562;9.940;2022-09-09T04:11:31;23.23;;;19.10;;
54983;SDS011;40884;53.562;9.940;2022-09-09T04:12:32;24.63;;;20.00;;
54983;SDS011;40884;53.562;9.940;2022-09-09T04:13:33;23.73;;;21.13;;
54983;SDS011;40884;53.562;9.940;2022-09-09T04:14:34;22.33;;;20.03;;
54983;SDS011;40884;53.562;9.940;2022-09-09T04:15:34;22.47;;;20.17;;
54983;SDS011;40884;53.562;9.940;2022-09-09T04:16:34;24.33;;;21.73;;
54983;SDS011;40884;53.562;9.940;2022-09-09T04:17:35;24.60;;;21.80;;
54983;SDS011;40884;53.562;9.940;2022-09-09T04:18:35;24.07;;;20.50;;
54983;SDS011;40884;53.562;9.940;2022-09-09T04:19:35;23.80;;;20.57;;
54983;SDS011;40884;53.562;9.940;2022-09-09T04:20:36;26.40;;;22.10;;
54983;SDS011;40884;53.562;9.940;2022-09-09T04:21:36;22.80;;;20.30;;
54983;SDS011;40884;53.562;9.940;2022-09-09T04:22:36;26.43;;;22.47;;
54983;SDS011;40884;53.562;9.940;2022-09-09T04:23:37;30.23;;;22.73;;
54983;SDS011;40884;53.562;9.940;2022-09-09T04:24:37;24.60;;;21.87;;
54983;SDS011;40884;53.562;9.940;2022-09-09T04:25:37;25.70;;;22.27;;
54983;SDS011;40884;53.562;9.940;2022-09-09T04:26:37;22.77;;;20.30;;
54983;SDS011;40884;53.562;9.940;2022-09-09T04:27:37;24.97;;;21.00;;
54983;SDS011;40884;53.562;9.940;2022-09-09T04:28:38;22.23;;;19.87;;
54983;SDS011;40884;53.562;9.940;2022-09-09T04:29:44;23.83;;;21.23;;
54983;SDS011;40884;53.562;9.940;2022-09-09T04:30:45;22.30;;;19.57;;
54983;SDS011;40884;53.562;9.940;2022-09-09T04:31:45;24.33;;;20.20;;
54983;SDS011;40884;53.562;9.940;2022-09-09T04:32:46;20.80;;;18.60;;
54983;SDS011;40884;53.562;9.940;2022-09-09T04:33:46;20.80;;;18.10;;
54983;SDS011;40884;53.562;9.940;2022-09-09T04:34:47;21.77;;;19.40;;
54983;SDS011;40884;53.562;9.940;2022-09-09T04:35:48;23.73;;;20.13;;
54983;SDS011;40884;53.562;9.940;2022-09-09T04:36:50;22.87;;;19.97;;
54983;SDS011;40884;53.562;9.940;2022-09-09T04:37:50;25.13;;;21.50;;
54983;SDS011;40884;53.562;9.940;2022-09-09T04:38:50;24.50;;;19.83;;
54983;SDS011;40884;53.562;9.940;2022-09-09T04:39:51;22.50;;;20.10;;
54983;SDS011;40884;53.562;9.940;2022-09-09T04:40:51;21.83;;;19.47;;
54983;SDS011;40884;53.562;9.940;2022-09-09T04:41:51;21.83;;;19.47;;
54983;SDS011;40884;53.562;9.940;2022-09-09T04:42:52;17.70;;;15.97;;
54983;SDS011;40884;53.562;9.940;2022-09-09T04:43:52;19.03;;;17.07;;
54983;SDS011;40884;53.562;9.940;2022-09-09T04:44:52;21.30;;;18.17;;
54983;SDS011;40884;53.562;9.940;2022-09-09T04:45:52;23.23;;;18.37;;
54983;SDS011;40884;53.562;9.940;2022-09-09T04:46:54;20.20;;;17.43;;
54983;SDS011;40884;53.562;9.940;2022-09-09T04:47:55;17.97;;;16.17;;
54983;SDS011;40884;53.562;9.940;2022-09-09T04:48:55;19.70;;;17.57;;
54983;SDS011;40884;53.562;9.940;2022-09-09T04:50:00;18.67;;;16.70;;
54983;SDS011;40884;53.562;9.940;2022-09-09T04:51:06;18.50;;;16.50;;
54983;SDS011;40884;53.562;9.940;2022-09-09T04:52:08;21.63;;;17.60;;
54983;SDS011;40884;53.562;9.940;2022-09-09T04:53:10;19.20;;;17.10;;
54983;SDS011;40884;53.562;9.940;2022-09-09T04:54:11;20.43;;;17.30;;
54983;SDS011;40884;53.562;9.940;2022-09-09T04:55:13;16.73;;;15.13;;
54983;SDS011;40884;53.562;9.940;2022-09-09T04:56:17;16.67;;;14.93;;
54983;SDS011;40884;53.562;9.940;2022-09-09T04:57:25;18.73;;;16.07;;
54983;SDS011;40884;53.562;9.940;2022-09-09T04:58:25;18.20;;;15.90;;
54983;SDS011;40884;53.562;9.940;2022-09-09T04:59:25;16.47;;;14.77;;
54983;SDS011;40884;53.562;9.940;2022-09-09T05:00:28;15.30;;;13.80;;
54983;SDS011;40884;53.562;9.940;2022-09-09T05:01:29;17.20;;;14.33;;
54983;SDS011;40884;53.562;9.940;2022-09-09T05:02:38;14.70;;;13.20;;
54983;SDS011;40884;53.562;9.940;2022-09-09T05:03:39;15.50;;;14.00;;
54983;SDS011;40884;53.562;9.940;2022-09-09T05:04:41;15.13;;;13.33;;
54983;SDS011;40884;53.562;9.940;2022-09-09T05:05:41;16.33;;;14.33;;
54983;SDS011;40884;53.562;9.940;2022-09-09T05:06:42;16.17;;;14.47;;
54983;SDS011;40884;53.562;9.940;2022-09-09T05:07:45;16.60;;;14.90;;
54983;SDS011;40884;53.562;9.940;2022-09-09T05:08:45;14.67;;;13.17;;
54983;SDS011;40884;53.562;9.940;2022-09-09T05:09:48;15.43;;;13.83;;
54983;SDS011;40884;53.562;9.940;2022-09-09T05:10:48;16.50;;;14.90;;
54983;SDS011;40884;53.562;9.940;2022-09-09T05:11:48;16.07;;;14.43;;
54983;SDS011;40884;53.562;9.940;2022-09-09T05:12:55;16.87;;;15.07;;
54983;SDS011;40884;53.562;9.940;2022-09-09T05:13:58;16.47;;;14.60;;
54983;SDS011;40884;53.562;9.940;2022-09-09T05:14:58;15.93;;;14.23;;
54983;SDS011;40884;53.562;9.940;2022-09-09T05:15:58;15.90;;;14.30;;
54983;SDS011;40884;53.562;9.940;2022-09-09T05:16:58;15.20;;;13.60;;
54983;SDS011;40884;53.562;9.940;2022-09-09T05:17:59;14.20;;;12.93;;
54983;SDS011;40884;53.562;9.940;2022-09-09T05:18:59;15.03;;;13.37;;
54983;SDS011;40884;53.562;9.940;2022-09-09T05:20:04;15.63;;;13.53;;
54983;SDS011;40884;53.562;9.940;2022-09-09T05:21:05;16.30;;;14.53;;
54983;SDS011;40884;53.562;9.940;2022-09-09T05:22:05;16.20;;;14.50;;
54983;SDS011;40884;53.562;9.940;2022-09-09T05:23:13;15.07;;;13.57;;
54983;SDS011;40884;53.562;9.940;2022-09-09T05:24:13;15.93;;;14.43;;
54983;SDS011;40884;53.562;9.940;2022-09-09T05:25:14;15.30;;;13.70;;
54983;SDS011;40884;53.562;9.940;2022-09-09T05:26:15;14.73;;;13.23;;
54983;SDS011;40884;53.562;9.940;2022-09-09T05:27:17;13.30;;;12.00;;
54983;SDS011;40884;53.562;9.940;2022-09-09T05:28:17;14.33;;;12.93;;
54983;SDS011;40884;53.562;9.940;2022-09-09T05:29:17;13.33;;;11.93;;
54983;SDS011;40884;53.562;9.940;2022-09-09T05:30:18;12.80;;;11.60;;
54983;SDS011;40884;53.562;9.940;2022-09-09T05:31:18;14.10;;;12.43;;
54983;SDS011;40884;53.562;9.940;2022-09-09T05:32:20;12.90;;;11.60;;
54983;SDS011;40884;53.562;9.940;2022-09-09T05:33:23;13.23;;;11.93;;
54983;SDS011;40884;53.562;9.940;2022-09-09T05:34:23;12.87;;;11.10;;
54983;SDS011;40884;53.562;9.940;2022-09-09T05:35:24;13.40;;;12.13;;
54983;SDS011;40884;53.562;9.940;2022-09-09T05:36:24;14.13;;;12.80;;
54983;SDS011;40884;53.562;9.940;2022-09-09T05:37:28;12.83;;;11.63;;
54983;SDS011;40884;53.562;9.940;2022-09-09T05:38:29;13.40;;;12.03;;
54983;SDS011;40884;53.562;9.940;2022-09-09T05:39:30;13.33;;;11.93;;
54983;SDS011;40884;53.562;9.940;2022-09-09T05:40:30;13.73;;;12.27;;
54983;SDS011;40884;53.562;9.940;2022-09-09T05:41:30;14.00;;;12.30;;
54983;SDS011;40884;53.562;9.940;2022-09-09T05:42:33;13.97;;;11.43;;
54983;SDS011;40884;53.562;9.940;2022-09-09T05:43:34;13.40;;;12.03;;
54983;SDS011;40884;53.562;9.940;2022-09-09T05:44:34;13.53;;;12.13;;
54983;SDS011;40884;53.562;9.940;2022-09-09T05:45:35;12.57;;;11.33;;
54983;SDS011;40884;53.562;9.940;2022-09-09T05:46:35;14.87;;;12.53;;
54983;SDS011;40884;53.562;9.940;2022-09-09T05:47:35;13.70;;;12.40;;
54983;SDS011;40884;53.562;9.940;2022-09-09T05:48:37;13.10;;;11.77;;
54983;SDS011;40884;53.562;9.940;2022-09-09T05:49:37;14.27;;;12.83;;
54983;SDS011;40884;53.562;9.940;2022-09-09T05:50:38;14.40;;;12.43;;
54983;SDS011;40884;53.562;9.940;2022-09-09T05:51:38;12.40;;;11.20;;
54983;SDS011;40884;53.562;9.940;2022-09-09T05:52:43;12.87;;;11.60;;
54983;SDS011;40884;53.562;9.940;2022-09-09T05:53:43;12.70;;;11.37;;
54983;SDS011;40884;53.562;9.940;2022-09-09T05:54:46;10.10;;;9.10;;
54983;SDS011;40884;53.562;9.940;2022-09-09T05:55:46;10.07;;;8.83;;
54983;SDS011;40884;53.562;9.940;2022-09-09T05:56:46;12.37;;;10.33;;
54983;SDS011;40884;53.562;9.940;2022-09-09T05:57:48;11.30;;;10.00;;
54983;SDS011;40884;53.562;9.940;2022-09-09T05:58:48;11.23;;;10.13;;
54983;SDS011;40884;53.562;9.940;2022-09-09T05:59:48;11.57;;;10.37;;
54983;SDS011;40884;53.562;9.940;2022-09-09T06:00:49;9.90;;;8.90;;
54983;SDS011;40884;53.562;9.940;2022-09-09T06:01:49;12.93;;;10.77;;
54983;SDS011;40884;53.562;9.940;2022-09-09T06:02:57;11.90;;;10.70;;
54983;SDS011;40884;53.562;9.940;2022-09-09T06:03:57;12.20;;;10.90;;
54983;SDS011;40884;53.562;9.940;2022-09-09T06:04:58;12.63;;;10.97;;
54983;SDS011;40884;53.562;9.940;2022-09-09T06:05:59;12.13;;;10.90;;
54983;SDS011;40884;53.562;9.940;2022-09-09T06:06:59;12.27;;;10.93;;
54983;SDS011;40884;53.562;9.940;2022-09-09T06:07:59;13.80;;;11.70;;
54983;SDS011;40884;53.562;9.940;2022-09-09T06:09:00;10.07;;;9.03;;
54983;SDS011;40884;53.562;9.940;2022-09-09T06:10:05;10.70;;;9.60;;
54983;SDS011;40884;53.562;9.940;2022-09-09T06:11:08;13.27;;;10.67;;
54983;SDS011;40884;53.562;9.940;2022-09-09T06:12:09;14.07;;;10.57;;
54983;SDS011;40884;53.562;9.940;2022-09-09T06:13:10;11.63;;;10.03;;
54983;SDS011;40884;53.562;9.940;2022-09-09T06:14:10;10.23;;;9.23;;
54983;SDS011;40884;53.562;9.940;2022-09-09T06:15:11;10.97;;;9.47;;
54983;SDS011;40884;53.562;9.940;2022-09-09T06:16:12;10.60;;;9.30;;
54983;SDS011;40884;53.562;9.940;2022-09-09T06:17:13;11.13;;;10.07;;
54983;SDS011;40884;53.562;9.940;2022-09-09T06:18:13;11.33;;;9.50;;
54983;SDS011;40884;53.562;9.940;2022-09-09T06:19:13;10.93;;;9.93;;
54983;SDS011;40884;53.562;9.940;2022-09-09T06:20:14;13.17;;;10.40;;
54983;SDS011;40884;53.562;9.940;2022-09-09T06:21:21;13.33;;;10.03;;
54983;SDS011;40884;53.562;9.940;2022-09-09T06:22:21;9.90;;;8.90;;
54983;SDS011;40884;53.562;9.940;2022-09-09T06:23:22;12.17;;;9.00;;
54983;SDS011;40884;53.562;9.940;2022-09-09T06:24:22;10.37;;;9.27;;
54983;SDS011;40884;53.562;9.940;2022-09-09T06:25:22;9.90;;;8.90;;
54983;SDS011;40884;53.562;9.940;2022-09-09T06:26:23;11.37;;;8.43;;
54983;SDS011;40884;53.562;9.940;2022-09-09T06:27:24;10.33;;;9.30;;
54983;SDS011;40884;53.562;9.940;2022-09-09T06:28:24;9.70;;;8.53;;
54983;SDS011;40884;53.562;9.940;2022-09-09T06:29:24;9.83;;;8.77;;
54983;SDS011;40884;53.562;9.940;2022-09-09T06:30:26;12.30;;;9.50;;
54983;SDS011;40884;53.562;9.940;2022-09-09T06:31:27;11.53;;;8.00;;
54983;SDS011;40884;53.562;9.940;2022-09-09T06:32:50;9.47;;;7.97;;
54983;SDS011;40884;53.562;9.940;2022-09-09T06:33:59;11.00;;;9.37;;
54983;SDS011;40884;53.562;9.940;2022-09-09T06:34:59;12.73;;;9.67;;
54983;SDS011;40884;53.562;9.940;2022-09-09T06:36:02;8.90;;;7.87;;
54983;SDS011;40884;53.562;9.940;2022-09-09T06:37:03;9.87;;;8.97;;
54983;SDS011;40884;53.562;9.940;2022-09-09T06:38:12;11.43;;;8.57;;
54983;SDS011;40884;53.562;9.940;2022-09-09T06:39:13;10.67;;;8.83;;
54983;SDS011;40884;53.562;9.940;2022-09-09T06:40:13;11.20;;;8.83;;
54983;SDS011;40884;53.562;9.940;2022-09-09T06:41:18;11.47;;;8.80;;
54983;SDS011;40884;53.562;9.940;2022-09-09T06:42:20;13.17;;;8.67;;
54983;SDS011;40884;53.562;9.940;2022-09-09T06:43:23;11.13;;;9.60;;